Terminal Aerodrome Forecast
Issued by NWS

Home | Current Version | Previous Version | Text Only | Print | Product List | Glossary On
Versions: 1 2 3 4 5 6 7 8 9 10 11 12 13 14 15 16 17 18 19 20
000
FTUS41 KPBZ 010500
TAFDUJ
TAF
KDUJ 010520Z 0106/0206 VRB03KT P6SM OVC070
     FM010800 VRB05KT 2SM -SN OVC025
     FM011000 VRB05KT 1/2SM SN OVC008
     FM011800 20005KT 1SM -SN OVC008
     FM020400 27010KT 6SM -SN OVC010=

USA.gov is the U.S. government's official web portal to all federal, state and local government web resources and services.